Time;durP1;ratioP1;P1;durP2;ratioP2;P2;SDS_P1;SDS_P2;PMS_P1;PMS_P2;Temp;Humidity;BMP_temperature;BMP_pressure;BME280_temperature;BME280_humidity;BME280_pressure;Samples;Min_cycle;Max_cycle;Signal;HPM_P1;HPM_P2
2023/11/06 00:00:11;;;;;;;4.50;1.47;;;;;;;;;;5106606;28;20515;-80
2023/11/06 00:02:39;;;;;;;3.50;2.10;;;;;;;;;;5104922;28;20475;-80
2023/11/06 00:05:08;;;;;;;4.97;2.10;;;;;;;;;;5107191;28;20447;-80
2023/11/06 00:07:37;;;;;;;5.87;1.60;;;;;;;;;;5109637;28;20436;-79
2023/11/06 00:10:11;;;;;;;6.10;1.80;;;;;;;;;;5107422;28;20462;-80
2023/11/06 00:12:39;;;;;;;7.50;1.63;;;;;;;;;;5106598;28;20458;-79
2023/11/06 00:15:07;;;;;;;11.30;2.20;;;;;;;;;;5106678;28;20443;-80
2023/11/06 00:17:35;;;;;;;4.90;1.63;;;;;;;;;;5104215;28;20479;-79
2023/11/06 00:20:11;;;;;;;5.27;2.10;;;;;;;;;;5104133;28;20435;-81
2023/11/06 00:22:43;;;;;;;5.60;1.23;;;;;;;;;;5104292;28;20554;-80
2023/11/06 00:25:11;;;;;;;2.57;0.93;;;;;;;;;;5106026;28;20461;-81
2023/11/06 00:27:38;;;;;;;5.97;1.70;;;;;;;;;;5104722;28;20462;-80
2023/11/06 00:30:09;;;;;;;2.90;1.20;;;;;;;;;;5106252;28;20443;-81
2023/11/06 00:32:40;;;;;;;4.70;1.90;;;;;;;;;;5107042;28;20466;-80
2023/11/06 00:35:09;;;;;;;6.37;1.50;;;;;;;;;;5105223;28;20469;-80
2023/11/06 00:37:36;;;;;;;7.90;1.90;;;;;;;;;;5106232;28;20501;-80
2023/11/06 00:40:12;;;;;;;6.73;1.37;;;;;;;;;;5106355;28;20440;-80
2023/11/06 00:42:42;;;;;;;10.53;1.90;;;;;;;;;;5109570;28;20430;-81
2023/11/06 00:45:10;;;;;;;6.77;2.17;;;;;;;;;;5114863;28;20456;-80
2023/11/06 00:47:40;;;;;;;10.20;1.50;;;;;;;;;;5117508;28;20481;-80
2023/11/06 00:50:11;;;;;;;9.40;2.20;;;;;;;;;;5133414;28;20487;-80
2023/11/06 00:52:39;;;;;;;2.70;1.03;;;;;;;;;;5130488;28;20454;-80
2023/11/06 00:55:15;;;;;;;9.07;2.23;;;;;;;;;;5131690;28;20453;-80
2023/11/06 00:57:49;;;;;;;6.73;1.50;;;;;;;;;;5129758;28;20485;-80
2023/11/06 01:00:22;;;;;;;8.50;1.93;;;;;;;;;;5131158;28;20459;-80
2023/11/06 01:02:50;;;;;;;6.60;1.60;;;;;;;;;;5135929;28;20486;-79
2023/11/06 01:05:18;;;;;;;3.97;1.13;;;;;;;;;;5134865;28;20545;-79
2023/11/06 01:07:45;;;;;;;3.67;1.20;;;;;;;;;;5134654;28;20450;-81
2023/11/06 01:10:19;;;;;;;14.27;1.30;;;;;;;;;;5134146;28;20446;-80
2023/11/06 01:12:48;;;;;;;14.33;5.60;;;;;;;;;;5132331;28;20454;-79
2023/11/06 01:15:16;;;;;;;12.23;2.20;;;;;;;;;;5130579;28;20499;-81
2023/11/06 01:17:44;;;;;;;12.80;1.83;;;;;;;;;;5130890;28;20516;-79
2023/11/06 01:20:12;;;;;;;9.83;1.50;;;;;;;;;;5133998;28;20435;-78
2023/11/06 01:22:43;;;;;;;5.93;2.80;;;;;;;;;;5129882;28;20458;-79
2023/11/06 01:25:11;;;;;;;7.87;1.50;;;;;;;;;;5133325;28;20438;-82
2023/11/06 01:27:38;;;;;;;6.13;1.80;;;;;;;;;;5130585;28;20500;-81
2023/11/06 01:30:11;;;;;;;4.57;1.63;;;;;;;;;;5132118;28;20465;-81
2023/11/06 01:32:40;;;;;;;4.43;2.13;;;;;;;;;;5134878;28;20480;-80
2023/11/06 01:35:08;;;;;;;7.43;2.70;;;;;;;;;;5131385;28;20872;-79
2023/11/06 01:37:35;;;;;;;6.23;2.53;;;;;;;;;;5132176;28;20486;-80
2023/11/06 01:40:10;;;;;;;3.90;2.00;;;;;;;;;;5132362;28;20454;-81
2023/11/06 01:42:38;;;;;;;6.37;2.63;;;;;;;;;;5130913;28;20918;-80
2023/11/06 01:45:09;;;;;;;4.27;2.03;;;;;;;;;;5131204;28;20423;-80
2023/11/06 01:47:38;;;;;;;6.17;2.67;;;;;;;;;;5134256;28;20466;-81
2023/11/06 01:50:09;;;;;;;8.60;1.80;;;;;;;;;;5130794;28;20458;-80
2023/11/06 01:52:41;;;;;;;6.77;1.80;;;;;;;;;;5132419;28;20465;-81
2023/11/06 01:55:10;;;;;;;7.43;2.10;;;;;;;;;;5134114;28;20492;-80
2023/11/06 01:57:38;;;;;;;5.73;1.73;;;;;;;;;;5132065;28;20485;-80
2023/11/06 02:00:10;;;;;;;6.63;1.40;;;;;;;;;;5132874;28;20455;-78
2023/11/06 02:02:39;;;;;;;8.60;1.93;;;;;;;;;;5129677;28;20860;-79
2023/11/06 02:05:09;;;;;;;5.13;1.90;;;;;;;;;;5130778;28;20447;-78
2023/11/06 02:07:37;;;;;;;8.13;2.23;;;;;;;;;;5129390;28;20439;-79
2023/11/06 02:10:09;;;;;;;5.50;2.17;;;;;;;;;;5129344;28;20451;-81
2023/11/06 02:12:36;;;;;;;3.20;1.60;;;;;;;;;;5129041;28;20862;-80
2023/11/06 02:15:05;;;;;;;7.80;2.20;;;;;;;;;;5129322;28;20570;-81
2023/11/06 02:17:32;;;;;;;7.60;2.00;;;;;;;;;;5128854;28;20487;-80
2023/11/06 02:20:08;;;;;;;3.60;1.63;;;;;;;;;;5131146;28;20435;-80
2023/11/06 02:22:35;;;;;;;4.60;3.13;;;;;;;;;;5131992;28;20507;-81
2023/11/06 02:25:04;;;;;;;8.70;2.30;;;;;;;;;;5131203;28;20829;-82
2023/11/06 02:27:32;;;;;;;6.50;1.70;;;;;;;;;;5132081;28;20458;-80
2023/11/06 02:30:00;;;;;;;9.90;3.60;;;;;;;;;;5130094;28;20467;-80
2023/11/06 02:32:27;;;;;;;6.90;1.90;;;;;;;;;;5131812;28;20530;-79
2023/11/06 02:34:55;;;;;;;7.00;2.70;;;;;;;;;;5130162;28;20443;-80
2023/11/06 02:37:23;;;;;;;7.90;2.50;;;;;;;;;;5129970;28;20475;-81
2023/11/06 02:39:51;;;;;;;7.13;3.00;;;;;;;;;;5126930;28;20455;-80
2023/11/06 02:42:21;;;;;;;5.53;2.70;;;;;;;;;;5128805;28;20451;-79
2023/11/06 02:44:49;;;;;;;4.00;2.10;;;;;;;;;;5128813;28;20931;-80
2023/11/06 02:47:16;;;;;;;5.93;2.80;;;;;;;;;;5129943;28;20551;-81
2023/11/06 02:49:44;;;;;;;12.77;2.77;;;;;;;;;;5128330;28;20457;-81
2023/11/06 02:52:12;;;;;;;8.80;3.00;;;;;;;;;;5128364;28;20435;-81
2023/11/06 02:54:39;;;;;;;14.03;2.50;;;;;;;;;;5128262;28;20454;-79
2023/11/06 02:57:07;;;;;;;5.20;2.00;;;;;;;;;;5128454;28;20497;-80
2023/11/06 02:59:36;;;;;;;5.60;2.37;;;;;;;;;;5128807;28;20490;-81
2023/11/06 03:02:04;;;;;;;9.07;2.10;;;;;;;;;;5130779;28;20470;-80
2023/11/06 03:04:32;;;;;;;2.77;1.70;;;;;;;;;;5126354;28;20443;-80
2023/11/06 03:07:00;;;;;;;4.33;2.10;;;;;;;;;;5126318;28;20822;-79
2023/11/06 03:09:27;;;;;;;4.33;2.30;;;;;;;;;;5126890;28;20454;-80
2023/11/06 03:11:55;;;;;;;3.80;2.03;;;;;;;;;;5129346;28;20469;-78
2023/11/06 03:14:23;;;;;;;6.13;2.00;;;;;;;;;;5129443;28;20461;-80
2023/11/06 03:16:52;;;;;;;6.40;2.10;;;;;;;;;;5127574;28;20490;-80
2023/11/06 03:19:20;;;;;;;8.23;2.30;;;;;;;;;;5128703;28;20443;-81
2023/11/06 03:21:48;;;;;;;3.57;1.90;;;;;;;;;;5128066;28;20451;-80
2023/11/06 03:24:15;;;;;;;3.47;1.97;;;;;;;;;;5126706;28;20602;-79
2023/11/06 03:26:43;;;;;;;5.50;1.77;;;;;;;;;;5127412;28;20454;-80
2023/11/06 03:29:11;;;;;;;4.63;2.20;;;;;;;;;;5127102;28;20455;-80
2023/11/06 03:31:38;;;;;;;4.10;1.63;;;;;;;;;;5128467;28;20479;-82
2023/11/06 03:34:07;;;;;;;6.73;1.27;;;;;;;;;;5126435;28;20537;-81
2023/11/06 03:36:41;;;;;;;3.27;1.60;;;;;;;;;;5127390;28;20460;-80
2023/11/06 03:39:09;;;;;;;4.50;1.90;;;;;;;;;;5126547;28;20481;-80
2023/11/06 03:41:37;;;;;;;3.67;1.43;;;;;;;;;;5129698;28;20625;-82
2023/11/06 03:44:05;;;;;;;4.57;1.67;;;;;;;;;;5126231;28;20471;-80
2023/11/06 03:46:35;;;;;;;4.33;1.90;;;;;;;;;;5125557;28;20458;-81
2023/11/06 03:49:03;;;;;;;6.90;2.40;;;;;;;;;;5123309;28;20796;-79
2023/11/06 03:51:32;;;;;;;11.10;2.10;;;;;;;;;;5126326;28;20525;-80
2023/11/06 03:54:00;;;;;;;6.10;1.30;;;;;;;;;;5124757;28;20426;-81
2023/11/06 03:56:27;;;;;;;6.80;2.40;;;;;;;;;;5123864;28;20475;-81
2023/11/06 03:58:55;;;;;;;3.67;1.80;;;;;;;;;;5126945;28;20486;-81
2023/11/06 04:01:23;;;;;;;3.30;1.70;;;;;;;;;;5126735;28;20463;-79
2023/11/06 04:03:49;;;;;;;3.50;2.00;;;;;;;;;;5127401;28;20459;-79
2023/11/06 04:06:17;;;;;;;4.43;1.50;;;;;;;;;;5127475;28;20459;-79
2023/11/06 04:08:46;;;;;;;3.20;1.50;;;;;;;;;;5128931;28;20450;-80
2023/11/06 04:11:13;;;;;;;4.80;1.50;;;;;;;;;;5130581;28;20557;-81
2023/11/06 04:13:41;;;;;;;5.27;1.90;;;;;;;;;;5125825;28;20463;-80
2023/11/06 04:16:09;;;;;;;4.60;2.17;;;;;;;;;;5126014;28;20437;-81
2023/11/06 04:18:37;;;;;;;4.20;2.00;;;;;;;;;;5128763;28;20486;-80
2023/11/06 04:21:06;;;;;;;5.17;2.33;;;;;;;;;;5133038;28;20454;-81
2023/11/06 04:23:33;;;;;;;4.93;1.90;;;;;;;;;;5130618;28;20458;-80
2023/11/06 04:26:02;;;;;;;8.73;2.50;;;;;;;;;;5130531;28;20513;-80
2023/11/06 04:28:31;;;;;;;7.17;2.20;;;;;;;;;;5133155;28;20472;-81
2023/11/06 04:30:59;;;;;;;9.40;3.37;;;;;;;;;;5129448;28;20481;-80
2023/11/06 04:33:26;;;;;;;6.20;2.50;;;;;;;;;;5132683;28;20451;-81
2023/11/06 04:35:54;;;;;;;5.73;2.60;;;;;;;;;;5132694;28;20493;-81
2023/11/06 04:38:21;;;;;;;3.77;2.20;;;;;;;;;;5132413;28;20481;-81
2023/11/06 04:40:49;;;;;;;3.80;2.17;;;;;;;;;;5128353;28;20465;-81
2023/11/06 04:43:18;;;;;;;3.83;1.87;;;;;;;;;;5129491;28;20895;-81
2023/11/06 04:45:45;;;;;;;6.87;2.70;;;;;;;;;;5128872;28;20818;-81
2023/11/06 04:48:12;;;;;;;7.53;1.83;;;;;;;;;;5131781;28;20506;-79
2023/11/06 04:50:40;;;;;;;8.60;2.57;;;;;;;;;;5132205;28;20466;-81
2023/11/06 04:53:07;;;;;;;6.33;1.63;;;;;;;;;;5130123;28;20462;-82
2023/11/06 04:55:36;;;;;;;3.53;2.07;;;;;;;;;;5132969;28;20442;-81
2023/11/06 04:58:04;;;;;;;8.53;3.03;;;;;;;;;;5129507;28;20474;-82
2023/11/06 05:00:33;;;;;;;4.90;2.40;;;;;;;;;;5131028;28;20458;-81
2023/11/06 05:03:01;;;;;;;7.10;3.00;;;;;;;;;;5133584;28;20438;-80
2023/11/06 05:05:28;;;;;;;5.47;2.03;;;;;;;;;;5133580;28;20451;-80
2023/11/06 05:07:56;;;;;;;4.43;2.20;;;;;;;;;;5133452;28;20443;-80
2023/11/06 05:10:23;;;;;;;8.80;3.70;;;;;;;;;;5130863;28;20442;-80
2023/11/06 05:12:52;;;;;;;8.47;3.33;;;;;;;;;;5130736;28;20442;-79
2023/11/06 05:15:20;;;;;;;12.47;3.37;;;;;;;;;;5131815;28;20458;-79
2023/11/06 05:17:49;;;;;;;9.07;4.33;;;;;;;;;;5127034;28;20479;-81
2023/11/06 05:20:17;;;;;;;7.37;4.13;;;;;;;;;;5127872;28;20454;-80
2023/11/06 05:22:44;;;;;;;13.10;3.10;;;;;;;;;;5130811;28;20457;-80
2023/11/06 05:25:12;;;;;;;9.43;2.63;;;;;;;;;;5130392;28;20446;-82
2023/11/06 05:27:40;;;;;;;6.80;2.73;;;;;;;;;;5132697;28;20438;-81
2023/11/06 05:30:12;;;;;;;4.37;2.57;;;;;;;;;;5129612;28;20523;-81
2023/11/06 05:32:41;;;;;;;8.20;2.10;;;;;;;;;;5129573;28;20474;-80
2023/11/06 05:35:11;;;;;;;5.10;2.00;;;;;;;;;;5132567;28;20457;-80
2023/11/06 05:37:38;;;;;;;6.20;2.53;;;;;;;;;;5132166;28;20478;-81
2023/11/06 05:40:10;;;;;;;9.53;2.80;;;;;;;;;;5132817;28;20477;-80
2023/11/06 05:42:37;;;;;;;5.30;2.50;;;;;;;;;;5133778;28;20471;-82
2023/11/06 05:45:09;;;;;;;8.10;2.70;;;;;;;;;;5132418;28;20447;-80
2023/11/06 05:47:36;;;;;;;3.60;2.40;;;;;;;;;;5130409;28;20486;-80
2023/11/06 05:50:08;;;;;;;5.73;2.50;;;;;;;;;;5130151;28;20470;-80
2023/11/06 05:52:39;;;;;;;6.37;1.80;;;;;;;;;;5127223;28;20459;-80
2023/11/06 05:55:07;;;;;;;4.73;2.10;;;;;;;;;;5120776;28;20432;-80
2023/11/06 05:57:35;;;;;;;6.80;2.70;;;;;;;;;;5104058;28;20999;-79
2023/11/06 06:00:11;;;;;;;5.53;2.40;;;;;;;;;;5107658;28;20435;-81
2023/11/06 06:02:40;;;;;;;5.47;2.63;;;;;;;;;;5105484;28;20736;-79
2023/11/06 06:05:11;;;;;;;4.33;2.13;;;;;;;;;;5103843;28;20467;-82
2023/11/06 06:07:41;;;;;;;3.60;1.77;;;;;;;;;;5107329;28;20436;-81
2023/11/06 06:10:15;;;;;;;3.70;1.60;;;;;;;;;;5104689;28;20440;-80
2023/11/06 06:12:42;;;;;;;6.43;1.90;;;;;;;;;;5107625;28;20436;-79
2023/11/06 06:15:10;;;;;;;3.60;1.30;;;;;;;;;;5102254;28;20717;-80
2023/11/06 06:17:39;;;;;;;4.03;1.23;;;;;;;;;;5102331;28;20557;-80
2023/11/06 06:20:11;;;;;;;6.77;2.40;;;;;;;;;;5104310;28;20440;-80
2023/11/06 06:22:41;;;;;;;6.37;2.83;;;;;;;;;;5101307;28;20447;-81
2023/11/06 06:25:09;;;;;;;4.90;1.70;;;;;;;;;;5102564;28;20451;-80
2023/11/06 06:27:38;;;;;;;5.90;1.73;;;;;;;;;;5102259;28;20745;-80
2023/11/06 06:30:17;;;;;;;5.07;2.20;;;;;;;;;;5101308;28;20655;-79
2023/11/06 06:32:45;;;;;;;6.77;2.57;;;;;;;;;;5100152;28;20481;-80
2023/11/06 06:35:13;;;;;;;4.30;1.93;;;;;;;;;;5098123;28;20451;-81
2023/11/06 06:37:42;;;;;;;6.93;2.30;;;;;;;;;;5100651;28;20793;-79
2023/11/06 06:40:10;;;;;;;5.33;1.50;;;;;;;;;;5100882;28;20863;-79
2023/11/06 06:42:38;;;;;;;4.27;2.13;;;;;;;;;;5100447;28;20452;-79
2023/11/06 06:45:08;;;;;;;4.33;1.90;;;;;;;;;;5100243;28;20448;-78
2023/11/06 06:47:35;;;;;;;4.90;2.00;;;;;;;;;;5095819;28;20490;-80
2023/11/06 06:50:10;;;;;;;6.70;2.40;;;;;;;;;;5101696;28;20447;-81
2023/11/06 06:52:37;;;;;;;7.40;1.97;;;;;;;;;;5118265;28;20458;-79
2023/11/06 06:55:07;;;;;;;5.27;1.70;;;;;;;;;;5120663;28;20451;-81
2023/11/06 06:57:35;;;;;;;5.63;1.77;;;;;;;;;;5118104;28;20710;-79
2023/11/06 07:00:17;;;;;;;6.73;2.47;;;;;;;;;;5117559;28;20485;-80
2023/11/06 07:02:45;;;;;;;6.43;2.67;;;;;;;;;;5116773;28;20818;-79
2023/11/06 07:05:13;;;;;;;3.97;2.00;;;;;;;;;;5118828;28;20438;-79
2023/11/06 07:07:40;;;;;;;5.60;1.80;;;;;;;;;;5119348;28;20431;-80
2023/11/06 07:10:10;;;;;;;6.90;2.20;;;;;;;;;;5110797;28;20719;-79
2023/11/06 07:12:37;;;;;;;5.03;2.07;;;;;;;;;;5118595;28;20490;-78
2023/11/06 07:15:06;;;;;;;4.00;1.80;;;;;;;;;;5125234;28;20439;-77
2023/11/06 07:17:33;;;;;;;8.43;2.70;;;;;;;;;;5126727;28;20454;-78
2023/11/06 07:20:10;;;;;;;8.03;2.53;;;;;;;;;;5127038;28;20477;-78
2023/11/06 07:22:40;;;;;;;4.60;2.33;;;;;;;;;;5125037;28;20519;-79
2023/11/06 07:25:08;;;;;;;9.23;3.10;;;;;;;;;;5123317;28;20482;-80
2023/11/06 07:27:40;;;;;;;5.00;2.07;;;;;;;;;;5123165;28;20447;-79
2023/11/06 07:30:09;;;;;;;7.43;2.20;;;;;;;;;;5115170;28;20815;-79
2023/11/06 07:32:37;;;;;;;4.03;1.90;;;;;;;;;;5097974;28;20867;-79
2023/11/06 07:35:05;;;;;;;5.03;2.37;;;;;;;;;;5104793;28;20652;-79
2023/11/06 07:37:33;;;;;;;6.00;2.40;;;;;;;;;;5103732;28;20739;-78
2023/11/06 07:40:00;;;;;;;4.43;1.70;;;;;;;;;;5105753;28;20483;-79
2023/11/06 07:42:30;;;;;;;6.80;1.80;;;;;;;;;;5111872;28;20504;-79
2023/11/06 07:45:09;;;;;;;10.30;1.80;;;;;;;;;;5113066;28;21120;-79
2023/11/06 07:47:37;;;;;;;6.03;2.10;;;;;;;;;;5109980;28;20527;-78
2023/11/06 07:50:09;;;;;;;6.83;1.93;;;;;;;;;;5121009;28;20500;-79
2023/11/06 07:52:36;;;;;;;7.20;2.80;;;;;;;;;;5118477;28;20755;-79
2023/11/06 07:55:05;;;;;;;5.47;2.07;;;;;;;;;;5118880;28;20466;-78
2023/11/06 07:57:36;;;;;;;6.00;1.80;;;;;;;;;;5116296;28;20487;-78
2023/11/06 08:00:18;;;;;;;6.73;2.30;;;;;;;;;;5117526;28;20578;-79
2023/11/06 08:02:47;;;;;;;6.03;1.90;;;;;;;;;;5109533;28;20463;-80
2023/11/06 08:05:16;;;;;;;4.93;2.10;;;;;;;;;;5122179;28;20463;-78
2023/11/06 08:07:49;;;;;;;2.70;1.30;;;;;;;;;;5122985;28;20467;-79
2023/11/06 08:10:17;;;;;;;7.30;2.03;;;;;;;;;;5124581;28;20455;-80
2023/11/06 08:12:45;;;;;;;4.63;2.37;;;;;;;;;;5119414;28;20463;-80
2023/11/06 08:15:23;;;;;;;7.07;2.43;;;;;;;;;;5128938;28;20472;-79
2023/11/06 08:18:01;;;;;;;5.13;2.40;;;;;;;;;;5116830;28;20515;-80
2023/11/06 08:20:29;;;;;;;6.23;2.30;;;;;;;;;;5111660;28;20493;-78
2023/11/06 08:22:57;;;;;;;4.43;1.33;;;;;;;;;;5124036;28;20463;-78
2023/11/06 08:25:28;;;;;;;3.87;1.37;;;;;;;;;;5114550;28;20446;-80
2023/11/06 08:27:56;;;;;;;8.20;2.23;;;;;;;;;;5123044;28;20526;-78
2023/11/06 08:30:30;;;;;;;8.37;2.90;;;;;;;;;;5125180;28;20474;-78
2023/11/06 08:33:00;;;;;;;5.10;2.87;;;;;;;;;;5110565;28;20454;-78
2023/11/06 08:35:28;;;;;;;6.53;2.57;;;;;;;;;;5104873;28;20454;-80
2023/11/06 08:37:56;;;;;;;7.90;2.07;;;;;;;;;;5108070;28;20879;-77
2023/11/06 08:40:24;;;;;;;4.43;2.10;;;;;;;;;;5104845;28;20471;-78
2023/11/06 08:42:53;;;;;;;7.80;2.67;;;;;;;;;;5110127;28;20522;-78
2023/11/06 08:45:20;;;;;;;8.03;2.27;;;;;;;;;;5113820;28;20451;-78
2023/11/06 08:47:49;;;;;;;5.90;1.90;;;;;;;;;;5111810;28;20502;-79
2023/11/06 08:50:17;;;;;;;3.80;2.37;;;;;;;;;;5111668;28;20435;-80
2023/11/06 08:52:45;;;;;;;7.57;3.20;;;;;;;;;;5115765;28;20946;-79
2023/11/06 08:55:13;;;;;;;5.77;1.80;;;;;;;;;;5114466;28;20450;-79
2023/11/06 08:57:40;;;;;;;4.90;2.43;;;;;;;;;;5114391;28;20518;-80
2023/11/06 09:00:19;;;;;;;9.83;3.67;;;;;;;;;;5122516;28;20593;-81
2023/11/06 09:02:53;;;;;;;5.90;2.37;;;;;;;;;;5117011;28;20458;-80
2023/11/06 09:14:26;;;;;;;15.70;4.00;;;;;;;;;;5119493;28;20463;-81
2023/11/06 09:16:54;;;;;;;6.73;2.53;;;;;;;;;;5120998;28;20518;-79
2023/11/06 09:19:24;;;;;;;6.63;2.00;;;;;;;;;;5112999;28;20468;-79
2023/11/06 09:21:51;;;;;;;2.13;0.90;;;;;;;;;;5124592;28;20469;-80
2023/11/06 09:24:19;;;;;;;7.53;2.30;;;;;;;;;;5122169;28;20488;-79
2023/11/06 09:26:49;;;;;;;5.50;2.40;;;;;;;;;;5127715;28;20488;-79
2023/11/06 09:29:22;;;;;;;6.33;2.77;;;;;;;;;;5115772;28;20477;-80
2023/11/06 09:32:05;;;;;;;8.30;4.00;;;;;;;;;;5121095;28;20501;-79
2023/11/06 09:34:37;;;;;;;5.83;3.30;;;;;;;;;;5119208;28;20463;-78
2023/11/06 09:37:05;;;;;;;6.67;2.13;;;;;;;;;;5118057;28;20810;-79
2023/11/06 09:39:38;;;;;;;9.50;2.20;;;;;;;;;;5116866;28;20475;-79
2023/11/06 09:42:25;;;;;;;5.53;1.77;;;;;;;;;;5115347;28;20516;-78
2023/11/06 09:45:21;;;;;;;7.87;2.80;;;;;;;;;;5124985;27;20495;-79
2023/11/06 10:05:35;;;;;;;5.10;1.87;;;;;;;;;;5109838;27;20304;-79
2023/11/06 10:08:33;;;;;;;6.27;1.53;;;;;;;;;;5109005;28;20490;-78
2023/11/06 10:11:17;;;;;;;4.67;1.60;;;;;;;;;;5103200;28;20463;-80
2023/11/06 10:17:19;;;;;;;3.90;1.50;;;;;;;;;;5108902;28;20430;-79
2023/11/06 10:20:13;;;;;;;4.50;1.60;;;;;;;;;;5090665;28;20480;-79
2023/11/06 10:22:59;;;;;;;6.80;1.50;;;;;;;;;;5104839;28;20456;-80
2023/11/06 10:25:32;;;;;;;5.03;1.93;;;;;;;;;;5103873;28;20463;-80
2023/11/06 10:28:07;;;;;;;5.27;2.33;;;;;;;;;;5112282;28;20448;-80
2023/11/06 10:30:51;;;;;;;9.43;2.10;;;;;;;;;;5078152;28;20457;-81
2023/11/06 10:33:37;;;;;;;;;;;;;;;;;;;;;
2023/11/06 10:36:24;;;;;;;5.87;2.03;;;;;;;;;;5096616;28;20460;-79
2023/11/06 10:39:13;;;;;;;7.27;2.67;;;;;;;;;;5105669;28;20519;-80
2023/11/06 10:41:46;;;;;;;8.73;1.43;;;;;;;;;;5107326;28;20596;-80
2023/11/06 10:44:19;;;;;;;6.90;2.20;;;;;;;;;;5107622;28;20464;-79
2023/11/06 10:46:50;;;;;;;8.20;1.77;;;;;;;;;;5095315;28;20467;-79
2023/11/06 10:49:22;;;;;;;3.73;1.27;;;;;;;;;;5102643;28;20571;-79
2023/11/06 10:51:51;;;;;;;3.73;1.60;;;;;;;;;;5097367;28;20978;-79
2023/11/06 10:54:29;;;;;;;3.93;1.20;;;;;;;;;;5093091;28;20480;-82
2023/11/06 10:56:59;;;;;;;9.87;2.10;;;;;;;;;;5101026;28;20773;-78
2023/11/06 10:59:27;;;;;;;4.23;1.00;;;;;;;;;;5103055;28;20472;-78
2023/11/06 11:01:59;;;;;;;4.20;1.87;;;;;;;;;;5101244;28;20484;-79
2023/11/06 11:04:35;;;;;;;3.07;1.23;;;;;;;;;;5084518;28;20489;-79
2023/11/06 11:07:06;;;;;;;4.23;1.43;;;;;;;;;;5091724;28;20591;-79
2023/11/06 11:09:38;;;;;;;3.17;1.50;;;;;;;;;;5098083;28;20460;-79
2023/11/06 11:12:11;;;;;;;3.27;1.20;;;;;;;;;;5106925;28;20452;-79
2023/11/06 11:14:43;;;;;;;3.63;1.10;;;;;;;;;;5093399;28;20498;-80
2023/11/06 11:17:31;;;;;;;6.70;1.40;;;;;;;;;;5098648;28;20459;-79
2023/11/06 11:20:10;;;;;;;5.43;1.37;;;;;;;;;;5103469;28;20635;-79
2023/11/06 11:32:19;;;;;;;5.87;1.30;;;;;;;;;;5099587;28;20490;-79
2023/11/06 11:34:56;;;;;;;5.13;1.53;;;;;;;;;;5096914;28;20456;-80
2023/11/06 11:40:26;;;;;;;5.53;1.67;;;;;;;;;;5093161;28;20492;-78
2023/11/06 11:43:25;;;;;;;3.57;1.33;;;;;;;;;;5089487;28;20552;-79
2023/11/06 11:45:55;;;;;;;2.80;1.00;;;;;;;;;;5089823;28;20516;-78
2023/11/06 11:48:50;;;;;;;3.03;1.10;;;;;;;;;;5083912;28;20460;-79
2023/11/06 11:51:34;;;;;;;5.17;1.23;;;;;;;;;;5091936;28;20466;-78
2023/11/06 11:54:02;;;;;;;3.23;0.93;;;;;;;;;;5100715;28;20459;-78
2023/11/06 11:56:48;;;;;;;6.13;1.53;;;;;;;;;;5098989;28;20451;-79
2023/11/06 11:59:27;;;;;;;4.33;1.50;;;;;;;;;;5108540;28;20490;-79
2023/11/06 12:01:54;;;;;;;2.53;1.10;;;;;;;;;;5093885;28;20462;-79
2023/11/06 12:04:27;;;;;;;5.43;2.20;;;;;;;;;;5103185;28;20463;-78
2023/11/06 12:07:04;;;;;;;4.40;1.43;;;;;;;;;;5101378;28;20452;-79
2023/11/06 12:09:47;;;;;;;6.90;1.73;;;;;;;;;;5103226;28;20519;-78
2023/11/06 12:12:19;;;;;;;5.63;1.87;;;;;;;;;;5101173;28;20463;-79
2023/11/06 12:14:49;;;;;;;6.77;1.60;;;;;;;;;;5102457;28;20454;-79
2023/11/06 12:17:26;;;;;;;3.93;1.80;;;;;;;;;;5084406;28;20448;-78
2023/11/06 12:19:56;;;;;;;9.83;1.80;;;;;;;;;;5079504;28;20789;-80
2023/11/06 12:22:26;;;;;;;3.87;1.50;;;;;;;;;;5081314;28;20477;-80
2023/11/06 12:25:02;;;;;;;5.50;2.07;;;;;;;;;;5089418;28;20440;-80
2023/11/06 12:30:37;;;;;;;10.10;1.90;;;;;;;;;;5102426;28;20434;-79
2023/11/06 12:33:18;;;;;;;4.13;1.90;;;;;;;;;;5102439;28;20451;-80
2023/11/06 12:39:02;;;;;;;2.57;1.70;;;;;;;;;;5090697;28;20903;-79
2023/11/06 12:41:38;;;;;;;4.93;2.10;;;;;;;;;;5108556;28;21344;-79
2023/11/06 12:56:51;;;;;;;5.87;2.00;;;;;;;;;;5070697;28;20431;-80
2023/11/06 12:59:21;;;;;;;6.33;2.20;;;;;;;;;;5116200;28;20442;-81
2023/11/06 13:01:51;;;;;;;4.00;1.73;;;;;;;;;;5113837;28;20455;-83
2023/11/06 13:04:20;;;;;;;6.63;2.10;;;;;;;;;;5108698;28;20557;-79
2023/11/06 13:06:48;;;;;;;4.97;2.20;;;;;;;;;;5108818;28;20456;-79
2023/11/06 13:09:17;;;;;;;6.30;1.93;;;;;;;;;;5109187;28;20479;-80
2023/11/06 13:11:48;;;;;;;6.30;2.13;;;;;;;;;;5102068;28;20566;-79
2023/11/06 13:14:17;;;;;;;8.87;3.67;;;;;;;;;;5096483;28;20714;-79
2023/11/06 13:16:48;;;;;;;7.10;1.80;;;;;;;;;;5095707;28;20432;-79
2023/11/06 13:19:18;;;;;;;4.43;1.50;;;;;;;;;;5106278;28;20456;-81
2023/11/06 13:21:46;;;;;;;4.07;1.80;;;;;;;;;;5087123;28;20673;-80
2023/11/06 13:24:15;;;;;;;6.00;2.10;;;;;;;;;;5108096;28;20471;-81
2023/11/06 13:26:56;;;;;;;6.90;2.07;;;;;;;;;;5109636;28;20567;-81
2023/11/06 13:29:27;;;;;;;7.80;2.10;;;;;;;;;;5110352;28;20460;-79
2023/11/06 13:32:03;;;;;;;6.77;1.87;;;;;;;;;;5097069;28;20788;-80
2023/11/06 13:34:32;;;;;;;5.90;2.10;;;;;;;;;;5099109;28;20475;-81
2023/11/06 13:40:14;;;;;;;5.50;2.30;;;;;;;;;;5099636;28;20483;-78
2023/11/06 13:42:46;;;;;;;8.63;2.37;;;;;;;;;;5108353;27;20434;-80
2023/11/06 13:45:16;;;;;;;5.10;2.70;;;;;;;;;;5103227;28;20474;-80
2023/11/06 13:47:53;;;;;;;11.30;2.80;;;;;;;;;;5110714;28;20526;-79
2023/11/06 13:50:32;;;;;;;4.37;2.40;;;;;;;;;;5107581;28;20439;-79
2023/11/06 13:53:10;;;;;;;9.47;3.30;;;;;;;;;;5092079;28;20483;-80
2023/11/06 13:55:38;;;;;;;7.77;2.83;;;;;;;;;;5103375;28;20455;-79
2023/11/06 13:58:10;;;;;;;5.90;2.97;;;;;;;;;;5091781;28;20444;-79
2023/11/06 14:00:45;;;;;;;6.43;3.10;;;;;;;;;;5082376;28;20488;-80
2023/11/06 14:03:13;;;;;;;7.87;2.60;;;;;;;;;;5082770;28;20448;-80
2023/11/06 14:05:45;;;;;;;6.33;3.13;;;;;;;;;;5083362;28;20453;-79
2023/11/06 14:08:13;;;;;;;11.80;2.50;;;;;;;;;;5067350;28;20464;-81
2023/11/06 14:10:45;;;;;;;9.13;4.40;;;;;;;;;;5099818;28;20521;-79
2023/11/06 14:13:21;;;;;;;12.90;2.93;;;;;;;;;;5102827;28;20453;-79
2023/11/06 14:16:11;;;;;;;10.10;3.07;;;;;;;;;;5095955;28;20490;-80
2023/11/06 14:18:44;;;;;;;4.37;2.07;;;;;;;;;;5086968;28;20463;-80
2023/11/06 14:21:17;;;;;;;10.47;2.63;;;;;;;;;;5097721;28;20545;-80
2023/11/06 14:26:49;;;;;;;7.60;2.43;;;;;;;;;;5102452;28;20498;-80
2023/11/06 14:29:44;;;;;;;9.57;3.30;;;;;;;;;;5098114;28;20517;-80
2023/11/06 14:32:16;;;;;;;5.33;1.90;;;;;;;;;;5084158;28;20445;-82
2023/11/06 14:34:53;;;;;;;3.93;1.70;;;;;;;;;;5091515;28;20459;-80
2023/11/06 14:37:24;;;;;;;9.87;2.57;;;;;;;;;;5089765;28;20440;-79
2023/11/06 14:39:56;;;;;;;5.10;1.80;;;;;;;;;;5097065;28;20462;-80
2023/11/06 14:42:25;;;;;;;6.30;2.07;;;;;;;;;;5092006;28;20445;-79
2023/11/06 14:45:11;;;;;;;3.63;1.90;;;;;;;;;;5104074;28;20467;-80
2023/11/06 14:47:42;;;;;;;7.50;3.00;;;;;;;;;;5093022;28;20452;-79
2023/11/06 14:50:11;;;;;;;6.90;2.70;;;;;;;;;;5087681;28;20444;-79
2023/11/06 14:52:40;;;;;;;5.80;2.00;;;;;;;;;;5096318;28;20464;-78
2023/11/06 14:55:12;;;;;;;5.17;2.20;;;;;;;;;;5101127;28;20459;-78
2023/11/06 14:57:40;;;;;;;9.60;1.53;;;;;;;;;;5093037;28;20619;-78
2023/11/06 15:00:22;;;;;;;7.70;1.93;;;;;;;;;;5082122;28;20543;-79
2023/11/06 15:02:53;;;;;;;5.13;1.63;;;;;;;;;;5091252;28;20460;-81
2023/11/06 15:05:22;;;;;;;11.27;2.57;;;;;;;;;;5096090;28;20883;-79
2023/11/06 15:07:51;;;;;;;5.73;2.10;;;;;;;;;;5099978;28;20442;-78
2023/11/06 15:10:19;;;;;;;9.10;1.70;;;;;;;;;;5100560;28;20451;-80
2023/11/06 15:12:50;;;;;;;7.40;1.80;;;;;;;;;;5100497;28;20483;-80
2023/11/06 15:15:21;;;;;;;3.90;1.43;;;;;;;;;;5095509;28;20537;-79
2023/11/06 15:17:49;;;;;;;8.40;1.77;;;;;;;;;;5080576;28;20456;-80
2023/11/06 15:20:20;;;;;;;6.83;1.93;;;;;;;;;;5081674;28;20475;-78
2023/11/06 15:22:49;;;;;;;5.43;1.70;;;;;;;;;;5098124;28;20455;-80
2023/11/06 15:25:36;;;;;;;5.53;1.80;;;;;;;;;;5104801;28;20533;-79
2023/11/06 15:28:05;;;;;;;7.53;1.60;;;;;;;;;;5081585;28;20511;-81
2023/11/06 15:30:35;;;;;;;4.00;1.30;;;;;;;;;;5080233;28;20519;-79
2023/11/06 15:33:04;;;;;;;8.67;1.63;;;;;;;;;;5079787;28;20449;-80
2023/11/06 15:35:34;;;;;;;7.33;2.07;;;;;;;;;;5081049;28;20475;-78
2023/11/06 15:38:02;;;;;;;10.20;3.23;;;;;;;;;;5077419;28;20495;-80
2023/11/06 15:40:47;;;;;;;3.40;1.67;;;;;;;;;;5099112;28;20491;-81
2023/11/06 15:43:18;;;;;;;5.70;2.23;;;;;;;;;;5107372;28;20493;-78
2023/11/06 15:45:46;;;;;;;7.87;4.70;;;;;;;;;;5098334;28;20439;-80
2023/11/06 15:48:15;;;;;;;11.90;3.03;;;;;;;;;;5089053;28;20543;-78
2023/11/06 15:50:44;;;;;;;8.73;2.97;;;;;;;;;;5102523;28;20485;-80
2023/11/06 15:53:16;;;;;;;6.67;2.20;;;;;;;;;;5099487;28;20574;-78
2023/11/06 15:55:44;;;;;;;6.13;1.93;;;;;;;;;;5099704;28;20478;-81
2023/11/06 15:58:12;;;;;;;4.57;1.37;;;;;;;;;;5099912;28;20444;-80
2023/11/06 16:00:40;;;;;;;11.23;2.77;;;;;;;;;;5081313;28;20528;-79
2023/11/06 16:03:08;;;;;;;5.30;1.93;;;;;;;;;;5078187;28;20483;-81
2023/11/06 16:05:36;;;;;;;9.70;2.37;;;;;;;;;;5080227;28;20464;-81
2023/11/06 16:08:10;;;;;;;6.80;2.30;;;;;;;;;;5096519;28;21138;-81
2023/11/06 16:10:38;;;;;;;7.00;2.63;;;;;;;;;;5103917;28;20524;-80
2023/11/06 16:13:05;;;;;;;5.70;2.30;;;;;;;;;;5098984;28;20471;-80